Terminal Aerodrome Forecast
Issued by NWS Buffalo, NY

Home | Current Version | Previous Version | Text Only | Print | Product List | Glossary On
Versions: 1 2 3 4 5 6 7 8 9 10 11 12 13 14 15 16 17 18 19 20 21 22 23 24
000
FTUS41 KBUF 232100 AAA
TAFART
TAF AMD
KART 232100Z 2321/2418 18005KT P6SM BKN040 OVC060
     FM240000 14007KT P6SM BKN050
     FM240500 14011KT P6SM OVC080
     FM240800 14013G20KT 6SM -RA OVC050 WS020/17040KT
     FM241300 15020KT 6SM -RA OVC035=

USA.gov is the U.S. government's official web portal to all federal, state and local government web resources and services.